Stations

Station Name Date Time Temperature Relative Humidity Precipitation Wind Speed Wind Direction Create Custom Report Daily Report Hourly Report
Aberdeen VTcr 2019-21-04 11:00 71.0 47.97 0.00 3.38 WSW
Bee Lake 2019-21-04 11:00 71.0 45.33 0.00 2.78 WSW
Brooksville 2019-21-04 11:00 -148.0 -100.00 0.00 3.11 WNW
Brooksville2 VTso 2019-21-04 11:00
Brown Loam Exp Stn VT 2019-21-04 11:00 72.8 53.85 0.00 3.14 SW
Brown Loam Exp. Stn. 2019-21-04 11:00 73.2 49.82 0.00 5.04 SSW
Catladge Farm 2019-21-04 11:00
Clarksdale VTso 2018-24-10 8:30 50.6 84.40 0.00
Cleveland 2019-21-04 11:00 71.8 49.52 0.00 10.68 SSW
Coastal Res & Ext Cnt 2019-21-04 11:00 71.7 29.39 0.00 3.09 WSW
COOP Stoneville 2019-17-04 8:00 65.0 88 0.00
Home Cypress Farm 2019-21-04 11:00 69.7 54.52 0.00 8.22 SSW
Longwood VTso 2019-21-04 11:00
Lyon 2019-21-04 11:00 71.3 52.17 0.00 4.89 S
Macon VTcr 2019-21-04 11:00 72.3 42.07 0.00 3.98 NW
Money VT 2019-21-04 11:00 70.0 50.34 0.00 6.76 SSE
Mound Bayou 2019-21-04 11:00 69.1 60.70 0.00 4.35 SW
Olive Branch VTcr 2019-21-04 11:00
Olive Branch2 VTso 2019-21-04 11:00 71.9 43.50 0.00
Onward VT 2019-21-04 11:00 71.5 47.54 0.00
Pontotoc AWS COOP 2019-21-04 11:00
Prairie 2019-21-04 11:00 69.5 51.05 0.00 3.35 SSE
Sidon 2019-21-04 11:00 69.7 54.07 0.00 5.10 SW
Stockett Farm 2019-21-04 10:45 73.1 47.54 0.00 6.55 ESE
Stoneville AWS 2019-21-04 11:00 71.0 53.91 0.00 6.28 SW
Stoneville F10 2019-21-04 11:00 70.1 56.50 0.00 7.83 SSE
Stoneville SW 2019-21-04 11:00 70.6 55.14 0.00 8.09 SW
Stoneville W 2019-21-04 11:00 71.4 49.98 0.01 9.34 SSW
Thighman 2019-21-04 11:00 70.6 52.15 0.00 3.73 S
Tippo VT 2019-21-04 11:00
Tribbett 2019-21-04 11:00 70.8 53.01 0.00 7.68 S
Verona 2019-21-04 11:00 69.9 53.89 0.00 1.94 SW
Verona VTso 2019-21-04 11:00 69.2 62.14 0.00